createdAt,value
2022-12-24T00:02:54.143Z,93.50
2022-12-24T00:06:21.577Z,93.40
2022-12-24T00:09:45.949Z,93.40
2022-12-24T00:13:17.447Z,93.50
2022-12-24T00:16:41.301Z,93.30
2022-12-24T00:20:07.944Z,93.40
2022-12-24T00:23:31.851Z,93.50
2022-12-24T00:26:56.115Z,93.60
2022-12-24T00:30:26.696Z,93.60
2022-12-24T00:33:51.008Z,93.20
2022-12-24T00:37:25.220Z,93.30
2022-12-24T00:40:54.466Z,93.50
2022-12-24T00:44:18.243Z,93.10
2022-12-24T00:47:43.741Z,93.00
2022-12-24T00:51:08.823Z,92.80
2022-12-24T00:54:33.035Z,92.70
2022-12-24T00:57:56.985Z,92.70
2022-12-24T01:01:23.188Z,92.50
2022-12-24T01:05:11.214Z,92.50
2022-12-24T01:08:37.279Z,92.40
2022-12-24T01:12:00.915Z,92.50
2022-12-24T01:15:24.969Z,92.60
2022-12-24T01:18:48.967Z,92.60
2022-12-24T01:22:14.507Z,92.90
2022-12-24T01:25:46.687Z,93.20
2022-12-24T01:29:11.007Z,93.90
2022-12-24T01:32:35.500Z,94.10
2022-12-24T01:36:03.939Z,94.10
2022-12-24T01:39:28.900Z,94.10
2022-12-24T01:43:11.879Z,94.00
2022-12-24T01:46:36.296Z,93.90
2022-12-24T01:50:03.114Z,93.70
2022-12-24T01:53:27.201Z,93.50
2022-12-24T01:56:56.947Z,93.60
2022-12-24T02:00:24.301Z,93.50
2022-12-24T02:03:50.342Z,93.50
2022-12-24T02:07:15.041Z,93.40
2022-12-24T02:10:39.010Z,93.20
2022-12-24T02:14:07.073Z,93.30
2022-12-24T02:17:40.582Z,93.20
2022-12-24T02:21:43.381Z,93.00
2022-12-24T02:25:53.289Z,92.80
2022-12-24T02:29:39.110Z,92.70
2022-12-24T02:33:19.395Z,93.20
2022-12-24T02:36:48.014Z,92.70
2022-12-24T02:40:16.712Z,92.70
2022-12-24T02:43:45.214Z,92.80
2022-12-24T02:47:10.963Z,92.70
2022-12-24T02:50:37.155Z,92.50
2022-12-24T02:54:01.066Z,92.60
2022-12-24T02:57:36.274Z,92.50
2022-12-24T03:01:17.685Z,92.60
2022-12-24T03:04:49.324Z,92.60
2022-12-24T03:08:22.820Z,92.60
2022-12-24T03:11:55.009Z,92.70
2022-12-24T03:15:21.856Z,92.80
2022-12-24T03:18:48.028Z,92.90
2022-12-24T03:22:13.298Z,92.90
2022-12-24T03:25:43.515Z,92.90
2022-12-24T03:29:09.109Z,92.80
2022-12-24T03:32:33.955Z,92.70
2022-12-24T03:35:58.231Z,92.60
2022-12-24T03:39:22.604Z,92.50
2022-12-24T03:42:48.578Z,92.50
2022-12-24T03:46:13.151Z,92.30
2022-12-24T03:49:37.303Z,92.00
2022-12-24T03:53:01.285Z,91.90
2022-12-24T03:56:27.807Z,91.60
2022-12-24T03:59:53.572Z,91.80
2022-12-24T04:03:18.566Z,91.70
2022-12-24T04:06:44.222Z,91.60
2022-12-24T04:10:09.793Z,91.60
2022-12-24T04:13:34.277Z,91.60
2022-12-24T04:16:59.642Z,91.40
2022-12-24T04:20:23.463Z,91.50
2022-12-24T04:23:47.868Z,91.30
2022-12-24T04:27:12.786Z,91.30
2022-12-24T04:30:38.944Z,91.60
2022-12-24T04:34:03.984Z,91.20
2022-12-24T04:37:28.363Z,91.30
2022-12-24T04:40:59.515Z,91.00
2022-12-24T04:44:23.227Z,90.90
2022-12-24T04:47:47.230Z,90.90
2022-12-24T04:51:13.892Z,90.80
2022-12-24T04:54:39.930Z,90.80
2022-12-24T04:58:03.579Z,90.70
2022-12-24T05:01:31.037Z,90.70
2022-12-24T05:04:55.308Z,90.50
2022-12-24T05:08:20.580Z,90.60
2022-12-24T05:11:46.593Z,90.60
2022-12-24T05:15:12.996Z,90.50
2022-12-24T05:18:36.714Z,90.60
2022-12-24T05:22:19.450Z,90.40
2022-12-24T05:26:02.456Z,90.50
2022-12-24T05:29:26.343Z,90.50
2022-12-24T05:32:50.415Z,90.50
2022-12-24T05:36:14.453Z,90.70
2022-12-24T05:39:38.320Z,90.70
2022-12-24T05:43:03.632Z,90.70
2022-12-24T05:46:27.464Z,90.80
2022-12-24T05:49:51.219Z,90.80
2022-12-24T05:53:15.281Z,90.80
2022-12-24T05:56:38.992Z,90.90
2022-12-24T06:00:05.563Z,90.90
2022-12-24T06:03:50.118Z,91.00
2022-12-24T06:07:14.314Z,91.10
2022-12-24T06:10:38.047Z,91.20
2022-12-24T06:14:04.516Z,91.10
2022-12-24T06:17:29.486Z,91.10
2022-12-24T06:20:54.034Z,91.10
2022-12-24T06:24:18.293Z,91.00
2022-12-24T06:27:42.345Z,91.10
2022-12-24T06:31:11.860Z,90.90
2022-12-24T06:34:40.109Z,91.00
2022-12-24T06:38:03.794Z,90.90
2022-12-24T06:41:28.363Z,91.00
2022-12-24T06:44:52.314Z,91.00
2022-12-24T06:48:19.757Z,91.10
2022-12-24T06:51:44.683Z,91.10
2022-12-24T06:55:09.324Z,91.20
2022-12-24T06:58:34.142Z,91.30
2022-12-24T07:02:00.631Z,91.30
2022-12-24T07:05:25.553Z,91.40
2022-12-24T07:08:50.869Z,91.40
2022-12-24T07:12:15.359Z,91.40
2022-12-24T07:15:39.555Z,91.50
2022-12-24T07:19:03.495Z,91.50
2022-12-24T07:22:28.300Z,91.50
2022-12-24T07:26:00.958Z,91.60
2022-12-24T07:29:25.328Z,91.90
2022-12-24T07:32:49.427Z,92.00
2022-12-24T07:36:20.048Z,92.30
2022-12-24T07:39:46.803Z,92.30
2022-12-24T07:43:17.016Z,92.80
2022-12-24T07:46:44.838Z,92.80
2022-12-24T07:50:13.382Z,92.90
2022-12-24T07:53:39.819Z,92.90
2022-12-24T07:57:04.510Z,92.80
2022-12-24T08:00:29.863Z,92.60
2022-12-24T08:03:55.724Z,92.70
2022-12-24T08:07:19.457Z,92.70
2022-12-24T08:10:45.401Z,92.80
2022-12-24T08:14:11.984Z,93.00
2022-12-24T08:17:37.004Z,93.10
2022-12-24T08:21:01.526Z,93.20
2022-12-24T08:24:25.573Z,93.20
2022-12-24T08:27:49.534Z,93.10
2022-12-24T08:31:16.287Z,93.10
2022-12-24T08:34:41.373Z,93.30
2022-12-24T08:38:05.541Z,93.50
2022-12-24T08:41:29.188Z,93.60
2022-12-24T08:44:53.500Z,93.70
2022-12-24T08:48:17.509Z,93.80
2022-12-24T08:51:42.723Z,93.70
2022-12-24T08:55:07.534Z,93.70
2022-12-24T08:58:31.533Z,93.90
2022-12-24T09:01:58.356Z,93.90
2022-12-24T09:05:22.745Z,93.90
2022-12-24T09:08:49.289Z,93.80
2022-12-24T09:12:16.217Z,93.80
2022-12-24T09:15:40.586Z,93.60
2022-12-24T09:19:04.509Z,93.50
2022-12-24T09:22:28.484Z,93.60
2022-12-24T09:25:54.274Z,93.20
2022-12-24T09:29:17.796Z,93.30
2022-12-24T09:32:41.312Z,93.50
2022-12-24T09:36:06.086Z,93.30
2022-12-24T09:39:29.692Z,93.30
2022-12-24T09:42:55.815Z,93.20
2022-12-24T09:46:26.951Z,93.10
2022-12-24T09:49:55.274Z,92.80
2022-12-24T09:53:24.864Z,92.80
2022-12-24T09:56:49.953Z,92.80
2022-12-24T10:00:22.210Z,92.70
2022-12-24T10:03:46.816Z,92.20
2022-12-24T10:07:25.365Z,91.90
2022-12-24T10:10:53.783Z,91.90
2022-12-24T10:14:31.422Z,91.80
2022-12-24T10:18:09.459Z,91.50
2022-12-24T10:21:42.809Z,91.50
2022-12-24T10:25:24.193Z,91.40
2022-12-24T10:28:52.660Z,91.50
2022-12-24T10:32:22.205Z,91.30
2022-12-24T10:35:51.142Z,91.00
2022-12-24T10:39:19.587Z,90.90
2022-12-24T10:42:50.714Z,91.00
2022-12-24T10:46:20.136Z,90.40
2022-12-24T10:49:48.149Z,90.40
2022-12-24T10:53:21.192Z,90.10
2022-12-24T10:56:47.871Z,90.10
2022-12-24T11:00:21.506Z,90.10
2022-12-24T11:03:45.176Z,89.90
2022-12-24T11:07:20.395Z,89.60
2022-12-24T11:10:55.543Z,89.60
2022-12-24T11:14:22.123Z,89.70
2022-12-24T11:17:54.899Z,89.50
2022-12-24T11:21:24.430Z,89.10
2022-12-24T11:24:59.459Z,89.20
2022-12-24T11:28:26.517Z,88.90
2022-12-24T11:31:52.599Z,88.30
2022-12-24T11:35:18.218Z,87.90
2022-12-24T11:38:41.894Z,87.00
2022-12-24T11:42:05.653Z,87.30
2022-12-24T11:45:33.243Z,87.10
2022-12-24T11:49:24.038Z,87.50
2022-12-24T11:52:50.740Z,87.20
2022-12-24T11:56:22.138Z,86.80
2022-12-24T11:59:48.302Z,86.80
2022-12-24T12:03:27.600Z,87.20
2022-12-24T12:06:55.286Z,87.30
2022-12-24T12:10:25.124Z,87.60
2022-12-24T12:13:51.358Z,87.60
2022-12-24T12:17:23.216Z,86.90
2022-12-24T12:20:52.995Z,86.90
2022-12-24T12:24:31.641Z,87.40
2022-12-24T12:27:58.844Z,86.90
2022-12-24T12:31:26.397Z,86.60
2022-12-24T12:35:00.469Z,86.80
2022-12-24T12:38:29.029Z,87.10
2022-12-24T12:42:00.129Z,87.10
2022-12-24T12:45:40.411Z,87.50
2022-12-24T12:49:22.363Z,86.70
2022-12-24T12:52:58.703Z,86.20
2022-12-24T12:56:31.245Z,86.20
2022-12-24T12:59:57.696Z,85.80
2022-12-24T13:03:58.925Z,86.00
2022-12-24T13:07:52.211Z,85.60
2022-12-24T13:11:41.636Z,85.20
2022-12-24T13:15:27.801Z,85.60
2022-12-24T13:19:05.576Z,85.60
2022-12-24T13:22:29.555Z,85.80
2022-12-24T13:25:55.262Z,85.90
2022-12-24T13:29:40.609Z,86.30
2022-12-24T13:33:04.919Z,86.20
2022-12-24T13:37:02.371Z,86.50
2022-12-24T13:40:26.796Z,86.40
2022-12-24T13:44:15.266Z,86.00
2022-12-24T13:47:43.258Z,86.40
2022-12-24T13:51:20.959Z,85.80
2022-12-24T13:54:49.071Z,85.40
2022-12-24T13:58:20.935Z,85.80
2022-12-24T14:01:46.169Z,86.00
2022-12-24T14:05:21.870Z,85.90
2022-12-24T14:08:47.288Z,85.90
2022-12-24T14:12:35.250Z,85.80
2022-12-24T14:16:04.469Z,85.70
2022-12-24T14:19:37.261Z,85.90
2022-12-24T14:23:04.929Z,85.90
2022-12-24T14:26:31.893Z,85.30
2022-12-24T14:30:02.537Z,85.10
2022-12-24T14:33:33.383Z,84.80
2022-12-24T14:36:58.486Z,84.60
2022-12-24T14:40:28.341Z,84.30
2022-12-24T14:43:59.802Z,84.40
2022-12-24T14:47:31.390Z,84.80
2022-12-24T14:51:08.487Z,84.80
2022-12-24T14:54:36.369Z,84.80
2022-12-24T14:58:25.107Z,85.10
2022-12-24T15:01:48.839Z,84.80
2022-12-24T15:05:15.821Z,85.10
2022-12-24T15:08:42.198Z,85.90
2022-12-24T15:12:06.638Z,85.60
2022-12-24T15:15:32.317Z,85.80
2022-12-24T15:18:59.766Z,85.50
2022-12-24T15:22:26.880Z,85.50
2022-12-24T15:25:50.534Z,85.60
2022-12-24T15:29:23.081Z,85.60
2022-12-24T15:32:58.858Z,85.90
2022-12-24T15:36:29.350Z,86.00
2022-12-24T15:39:57.773Z,87.20
2022-12-24T15:43:21.918Z,87.50
2022-12-24T15:46:45.616Z,87.90
2022-12-24T15:50:17.572Z,88.00
2022-12-24T15:53:45.290Z,88.30
2022-12-24T15:57:21.814Z,88.20
2022-12-24T16:01:00.643Z,88.10
2022-12-24T16:04:26.411Z,88.30
2022-12-24T16:08:08.689Z,88.40
2022-12-24T16:11:37.819Z,88.50
2022-12-24T16:15:01.896Z,88.50
2022-12-24T16:18:30.010Z,88.60
2022-12-24T16:21:56.367Z,88.70
2022-12-24T16:25:27.816Z,88.50
2022-12-24T16:28:51.603Z,88.90
2022-12-24T16:32:28.874Z,89.00
2022-12-24T16:35:52.517Z,89.00
2022-12-24T16:39:26.744Z,89.00
2022-12-24T16:43:09.218Z,88.80
2022-12-24T16:46:33.021Z,89.00
2022-12-24T16:49:58.099Z,88.60
2022-12-24T16:53:23.647Z,88.60
2022-12-24T16:56:47.250Z,88.30
2022-12-24T17:00:16.803Z,88.10
2022-12-24T17:03:40.670Z,88.00
2022-12-24T17:07:04.338Z,88.00
2022-12-24T17:10:28.736Z,88.00
2022-12-24T17:13:52.335Z,88.10
2022-12-24T17:17:24.777Z,89.10
2022-12-24T17:20:59.473Z,88.50
2022-12-24T17:24:23.047Z,88.50
2022-12-24T17:27:46.619Z,88.40
2022-12-24T17:31:11.408Z,88.50
2022-12-24T17:34:36.463Z,88.50
2022-12-24T17:38:00.103Z,88.50
2022-12-24T17:41:23.937Z,88.60
2022-12-24T17:44:47.489Z,88.80
2022-12-24T17:48:11.100Z,89.50
2022-12-24T17:51:40.227Z,88.80
2022-12-24T17:55:09.837Z,89.00
2022-12-24T17:58:33.808Z,89.20
2022-12-24T18:01:57.488Z,89.30
2022-12-24T18:05:21.202Z,89.40
2022-12-24T18:08:47.958Z,89.40
2022-12-24T18:12:11.794Z,89.60
2022-12-24T18:15:36.287Z,89.80
2022-12-24T18:19:00.772Z,89.90
2022-12-24T18:22:24.360Z,90.00
2022-12-24T18:25:49.256Z,90.10
2022-12-24T18:29:13.119Z,90.20
2022-12-24T18:32:37.576Z,90.20
2022-12-24T18:36:01.220Z,90.60
2022-12-24T18:39:24.799Z,90.30
2022-12-24T18:42:49.783Z,90.30
2022-12-24T18:46:17.845Z,90.30
2022-12-24T18:49:41.563Z,90.20
2022-12-24T18:53:05.910Z,90.30
2022-12-24T18:56:29.784Z,90.40
2022-12-24T18:59:55.861Z,90.30
2022-12-24T19:03:19.648Z,90.30
2022-12-24T19:06:50.751Z,90.30
2022-12-24T19:10:16.420Z,90.40
2022-12-24T19:13:40.043Z,90.40
2022-12-24T19:17:05.008Z,90.50
2022-12-24T19:20:28.794Z,90.50
2022-12-24T19:23:52.563Z,90.50
2022-12-24T19:27:16.114Z,90.50
2022-12-24T19:30:41.949Z,90.60
2022-12-24T19:34:07.069Z,90.70
2022-12-24T19:37:31.121Z,90.60
2022-12-24T19:40:54.653Z,90.70
2022-12-24T19:44:18.256Z,91.00
2022-12-24T19:47:41.802Z,91.10
2022-12-24T19:51:09.764Z,91.10
2022-12-24T19:54:33.340Z,91.20
2022-12-24T19:57:56.904Z,91.30
2022-12-24T20:01:22.468Z,91.30
2022-12-24T20:04:46.310Z,91.30
2022-12-24T20:08:11.730Z,91.40
2022-12-24T20:11:36.226Z,91.40
2022-12-24T20:14:59.782Z,91.80
2022-12-24T20:18:23.507Z,91.40
2022-12-24T20:21:47.194Z,91.40
2022-12-24T20:25:12.263Z,91.40
2022-12-24T20:28:37.413Z,91.50
2022-12-24T20:32:01.065Z,91.50
2022-12-24T20:35:25.010Z,91.50
2022-12-24T20:38:49.478Z,91.60
2022-12-24T20:42:14.403Z,91.60
2022-12-24T20:45:38.072Z,91.50
2022-12-24T20:49:01.623Z,91.60
2022-12-24T20:52:25.225Z,91.70
2022-12-24T20:55:51.180Z,91.70
2022-12-24T20:59:16.180Z,91.70
2022-12-24T21:02:39.958Z,91.50
2022-12-24T21:06:04.005Z,91.50
2022-12-24T21:09:27.464Z,91.50
2022-12-24T21:12:56.654Z,91.60
2022-12-24T21:16:21.828Z,91.60
2022-12-24T21:19:45.418Z,91.60
2022-12-24T21:23:09.022Z,91.60
2022-12-24T21:26:33.205Z,91.50
2022-12-24T21:29:57.006Z,91.10
2022-12-24T21:33:22.398Z,91.10
2022-12-24T21:36:47.096Z,91.20
2022-12-24T21:40:12.201Z,91.40
2022-12-24T21:43:36.748Z,91.50
2022-12-24T21:47:00.317Z,91.50
2022-12-24T21:50:42.839Z,91.40
2022-12-24T21:54:27.060Z,91.40
2022-12-24T21:57:53.368Z,91.40
2022-12-24T22:01:17.555Z,91.40
2022-12-24T22:04:41.814Z,91.00
2022-12-24T22:08:24.169Z,91.10
2022-12-24T22:11:54.640Z,91.10
2022-12-24T22:15:18.757Z,91.20
2022-12-24T22:18:42.343Z,91.30
2022-12-24T22:22:05.907Z,91.20
2022-12-24T22:25:31.465Z,91.60
2022-12-24T22:28:55.191Z,91.20
2022-12-24T22:32:18.776Z,91.40
2022-12-24T22:35:42.754Z,91.40
2022-12-24T22:39:06.229Z,91.30
2022-12-24T22:42:32.676Z,91.40
2022-12-24T22:45:56.227Z,92.10
2022-12-24T22:49:19.785Z,92.10
2022-12-24T22:52:43.346Z,92.00
2022-12-24T22:56:08.129Z,91.80
2022-12-24T22:59:33.036Z,91.80
2022-12-24T23:02:56.783Z,91.90
2022-12-24T23:06:20.528Z,91.90
2022-12-24T23:09:44.077Z,91.70
2022-12-24T23:13:25.337Z,91.40
2022-12-24T23:16:50.928Z,91.50
2022-12-24T23:20:14.460Z,91.30
2022-12-24T23:23:38.055Z,91.30
2022-12-24T23:27:02.761Z,91.50
2022-12-24T23:30:26.344Z,91.90
2022-12-24T23:33:51.547Z,91.70
2022-12-24T23:37:23.059Z,91.70
2022-12-24T23:40:51.586Z,91.90
2022-12-24T23:44:15.466Z,91.90
2022-12-24T23:47:39.480Z,91.90
2022-12-24T23:51:09.684Z,91.60
2022-12-24T23:54:33.497Z,91.40
2022-12-24T23:57:57.492Z,91.20
